Time;durP1;ratioP1;P1;durP2;ratioP2;P2;SDS_P1;SDS_P2;PMS_P1;PMS_P2;Temp;Humidity;BMP_temperature;BMP_pressure;BME280_temperature;BME280_humidity;BME280_pressure;Samples;Min_cycle;Max_cycle;Signal;HPM_P1;HPM_P2
2022/04/09 00:00:31;;;;;;;55.75;27.05;;;4.20;99.90;;;;;;5074418;28;20023;-86
2022/04/09 00:02:58;;;;;;;52.83;25.77;;;4.00;99.90;;;;;;5073057;28;20021;-85
2022/04/09 00:05:24;;;;;;;59.35;26.48;;;4.40;99.90;;;;;;5073130;28;20183;-85
2022/04/09 00:07:49;;;;;;;56.22;27.52;;;4.10;99.90;;;;;;5072840;28;20087;-85
2022/04/09 00:10:16;;;;;;;55.95;26.48;;;3.90;99.90;;;;;;5074306;28;20028;-85
2022/04/09 00:12:46;;;;;;;60.17;28.40;;;3.90;99.90;;;;;;5072942;28;20052;-85
2022/04/09 00:15:14;;;;;;;53.33;24.88;;;3.80;99.90;;;;;;5074229;28;21963;-85
2022/04/09 00:17:42;;;;;;;50.30;24.98;;;3.80;99.90;;;;;;5074942;28;20025;-85
2022/04/09 00:20:09;;;;;;;51.70;26.55;;;4.20;99.90;;;;;;5077306;28;20421;-85
2022/04/09 00:22:36;;;;;;;50.05;24.38;;;4.10;99.90;;;;;;5078128;28;20108;-85
2022/04/09 00:25:04;;;;;;;48.25;24.45;;;3.60;99.90;;;;;;5077020;28;20016;-85
2022/04/09 00:27:30;;;;;;;56.22;26.83;;;3.70;99.90;;;;;;5077958;28;20112;-85
2022/04/09 00:29:55;;;;;;;55.20;27.77;;;4.00;99.90;;;;;;5076920;28;20065;-85
2022/04/09 00:32:21;;;;;;;69.10;29.58;;;3.90;99.90;;;;;;5078097;28;20020;-85
2022/04/09 00:34:47;;;;;;;62.55;28.65;;;3.90;99.90;;;;;;5077854;28;20379;-86
2022/04/09 00:37:13;;;;;;;59.40;29.33;;;3.70;99.90;;;;;;5076314;28;20025;-85
2022/04/09 00:39:38;;;;;;;71.57;32.15;;;3.40;99.90;;;;;;5076766;28;20459;-85
2022/04/09 00:42:04;;;;;;;72.45;35.10;;;3.70;99.90;;;;;;5076575;28;20031;-85
2022/04/09 00:44:31;;;;;;;74.25;36.53;;;3.30;99.90;;;;;;5077403;28;20475;-85
2022/04/09 00:46:57;;;;;;;60.08;32.17;;;3.50;99.90;;;;;;5076430;28;20024;-85
2022/04/09 00:49:24;;;;;;;52.42;29.02;;;3.30;99.90;;;;;;5076531;28;20027;-85
2022/04/09 00:51:51;;;;;;;52.72;25.67;;;3.70;99.90;;;;;;5076323;28;20024;-85
2022/04/09 00:54:22;;;;;;;41.75;23.15;;;3.60;99.90;;;;;;5076436;28;20028;-85
2022/04/09 00:56:51;;;;;;;49.28;23.95;;;3.50;99.90;;;;;;5076190;28;20044;-85
2022/04/09 00:59:21;;;;;;;42.78;23.45;;;3.80;99.90;;;;;;5076271;28;20023;-85
2022/04/09 01:01:48;;;;;;;45.03;22.08;;;3.80;99.90;;;;;;5076430;28;20028;-85
2022/04/09 01:04:14;;;;;;;39.38;21.13;;;3.90;99.90;;;;;;5077321;28;20099;-85
2022/04/09 01:06:40;;;;;;;48.75;23.10;;;3.80;99.90;;;;;;5075881;28;20062;-85
2022/04/09 01:09:07;;;;;;;44.78;22.27;;;3.70;99.90;;;;;;5075997;28;20036;-85
2022/04/09 01:11:34;;;;;;;48.15;23.60;;;3.60;99.90;;;;;;5077078;28;20025;-85
2022/04/09 01:14:00;;;;;;;51.17;23.80;;;3.60;99.90;;;;;;5076175;28;20028;-85
2022/04/09 01:16:29;;;;;;;49.00;23.90;;;3.80;99.90;;;;;;5075885;28;20114;-85
2022/04/09 01:18:57;;;;;;;42.92;21.70;;;3.60;99.90;;;;;;5077058;28;20021;-85
2022/04/09 01:21:24;;;;;;;41.92;21.52;;;3.50;99.90;;;;;;5075782;28;20495;-85
2022/04/09 01:23:50;;;;;;;38.42;20.58;;;3.60;99.90;;;;;;5077453;28;20070;-85
2022/04/09 01:26:16;;;;;;;46.60;23.30;;;3.80;99.90;;;;;;5075897;28;20028;-85
2022/04/09 01:28:43;;;;;;;43.03;22.65;;;3.80;99.90;;;;;;5075257;28;20429;-85
2022/04/09 01:31:08;;;;;;;42.95;22.45;;;3.60;99.90;;;;;;5076744;28;20468;-85
2022/04/09 01:33:34;;;;;;;47.47;23.35;;;3.60;99.90;;;;;;5075692;28;20039;-85
2022/04/09 01:36:00;;;;;;;51.97;24.88;;;3.70;99.90;;;;;;5076694;28;20078;-85
2022/04/09 01:38:26;;;;;;;42.10;22.02;;;3.70;99.90;;;;;;5077018;28;20422;-85
2022/04/09 01:40:53;;;;;;;46.25;23.77;;;3.70;99.90;;;;;;5076940;28;20532;-85
2022/04/09 01:43:20;;;;;;;51.40;23.67;;;3.70;99.90;;;;;;5075441;28;20111;-85
2022/04/09 01:45:45;;;;;;;39.78;20.88;;;3.90;99.90;;;;;;5075507;28;20391;-85
2022/04/09 01:48:11;;;;;;;37.08;20.02;;;3.70;99.90;;;;;;5075485;28;20024;-85
2022/04/09 01:50:37;;;;;;;43.03;20.75;;;3.60;99.90;;;;;;5075420;28;20053;-85
2022/04/09 01:53:02;;;;;;;41.47;21.77;;;3.70;99.90;;;;;;5075358;28;20401;-85
2022/04/09 01:55:28;;;;;;;41.83;21.65;;;3.90;99.90;;;;;;5075149;28;20041;-85
2022/04/09 01:57:54;;;;;;;43.22;20.58;;;3.60;99.90;;;;;;5076534;28;20020;-85
2022/04/09 02:00:20;;;;;;;42.25;21.35;;;3.70;99.90;;;;;;5075185;28;20024;-85
2022/04/09 02:02:46;;;;;;;47.28;22.05;;;3.80;99.90;;;;;;5075292;28;20051;-85
2022/04/09 02:05:13;;;;;;;39.67;20.20;;;3.60;99.90;;;;;;5075171;28;20025;-85
2022/04/09 02:07:39;;;;;;;42.10;21.15;;;3.50;99.90;;;;;;5076081;28;20035;-85
2022/04/09 02:10:06;;;;;;;42.13;20.92;;;3.50;99.90;;;;;;5076074;28;20021;-85
2022/04/09 02:12:33;;;;;;;47.85;23.58;;;3.70;99.90;;;;;;5074998;28;20025;-85
2022/04/09 02:15:04;;;;;;;50.97;22.75;;;3.60;99.90;;;;;;5074859;28;20021;-85
2022/04/09 02:17:29;;;;;;;47.08;22.98;;;3.60;99.90;;;;;;5074934;28;20119;-85
2022/04/09 02:19:55;;;;;;;43.03;21.83;;;3.40;99.90;;;;;;5074913;28;20071;-85
2022/04/09 02:22:21;;;;;;;40.58;21.38;;;3.50;99.90;;;;;;5074697;28;20036;-85
2022/04/09 02:24:50;;;;;;;42.92;22.15;;;3.50;99.90;;;;;;5074667;28;20028;-85
2022/04/09 02:27:15;;;;;;;35.95;19.13;;;3.40;99.90;;;;;;5074571;28;20413;-85
2022/04/09 02:29:41;;;;;;;40.70;20.00;;;3.50;99.90;;;;;;5074450;28;20090;-85
2022/04/09 02:32:07;;;;;;;41.53;21.13;;;3.40;99.90;;;;;;5075587;28;20024;-85
2022/04/09 02:34:32;;;;;;;42.92;20.88;;;3.60;99.90;;;;;;5075894;28;20025;-85
2022/04/09 02:36:58;;;;;;;36.42;20.25;;;3.50;99.90;;;;;;5074303;28;20049;-85
2022/04/09 02:39:24;;;;;;;31.88;18.75;;;3.30;99.90;;;;;;5073700;28;20383;-85
2022/04/09 02:41:53;;;;;;;38.72;21.30;;;3.40;99.90;;;;;;5074137;28;20471;-85
2022/04/09 02:44:19;;;;;;;32.47;19.02;;;3.50;99.90;;;;;;5074397;28;20399;-85
2022/04/09 02:46:47;;;;;;;41.75;20.95;;;3.60;99.90;;;;;;5074140;28;20115;-84
2022/04/09 02:49:13;;;;;;;39.95;20.63;;;3.70;99.90;;;;;;5075385;28;20028;-85
2022/04/09 02:51:39;;;;;;;33.97;18.13;;;3.60;99.90;;;;;;5074096;28;20123;-85
2022/04/09 02:54:05;;;;;;;30.83;17.38;;;3.70;99.90;;;;;;5074182;28;20551;-85
2022/04/09 02:56:30;;;;;;;33.47;18.05;;;3.70;99.90;;;;;;5075056;28;20052;-85
2022/04/09 02:58:56;;;;;;;38.20;19.58;;;3.90;99.90;;;;;;5075245;28;20467;-85
2022/04/09 03:01:24;;;;;;;34.08;17.83;;;4.00;99.90;;;;;;5073959;28;20402;-85
2022/04/09 03:03:50;;;;;;;28.88;16.60;;;4.10;99.90;;;;;;5073857;28;20021;-85
2022/04/09 03:06:16;;;;;;;35.78;18.13;;;4.00;99.90;;;;;;5073849;28;20039;-85
2022/04/09 03:08:41;;;;;;;38.83;19.95;;;4.00;99.90;;;;;;5075125;28;20021;-84
2022/04/09 03:11:08;;;;;;;31.58;18.27;;;4.20;99.90;;;;;;5073757;28;20482;-85
2022/04/09 03:13:33;;;;;;;33.83;19.60;;;4.10;99.90;;;;;;5074876;28;20052;-85
2022/04/09 03:15:59;;;;;;;37.60;20.98;;;4.20;99.90;;;;;;5074674;28;20052;-85
2022/04/09 03:18:25;;;;;;;39.85;22.20;;;4.20;99.90;;;;;;5073725;28;20027;-85
2022/04/09 03:20:50;;;;;;;37.55;21.42;;;4.30;99.90;;;;;;5073571;28;20116;-85
2022/04/09 03:23:16;;;;;;;30.63;18.35;;;4.30;99.90;;;;;;5074732;28;20455;-85
2022/04/09 03:25:42;;;;;;;39.13;21.00;;;4.50;99.90;;;;;;5073560;28;20029;-85
2022/04/09 03:28:07;;;;;;;29.45;17.35;;;4.60;99.90;;;;;;5073522;28;20028;-85
2022/04/09 03:30:33;;;;;;;30.83;17.63;;;4.70;99.90;;;;;;5073518;28;20032;-85
2022/04/09 03:32:59;;;;;;;27.33;17.60;;;4.60;99.90;;;;;;5074859;28;20353;-85
2022/04/09 03:35:24;;;;;;;26.45;16.35;;;4.90;99.90;;;;;;5073214;28;20032;-85
2022/04/09 03:37:50;;;;;;;28.75;17.00;;;5.00;99.90;;;;;;5073390;28;20017;-85
2022/04/09 03:40:16;;;;;;;32.13;17.75;;;5.00;99.90;;;;;;5074550;28;20483;-85
2022/04/09 03:42:42;;;;;;;30.30;17.58;;;5.20;99.90;;;;;;5073435;28;20078;-84
2022/04/09 03:45:08;;;;;;;30.55;16.83;;;5.10;99.90;;;;;;5073259;28;20048;-84
2022/04/09 03:47:34;;;;;;;26.52;16.10;;;5.20;99.90;;;;;;5072703;28;20021;-85
2022/04/09 03:50:03;;;;;;;25.33;14.93;;;5.30;99.90;;;;;;5073435;28;20458;-85
2022/04/09 03:52:29;;;;;;;38.03;17.80;;;5.40;99.90;;;;;;5074085;28;20439;-85
2022/04/09 03:54:55;;;;;;;29.33;15.95;;;5.30;99.90;;;;;;5073069;28;20028;-85
2022/04/09 03:57:21;;;;;;;27.45;15.52;;;5.50;99.90;;;;;;5074609;28;20024;-85
2022/04/09 03:59:47;;;;;;;26.02;14.85;;;5.40;99.90;;;;;;5073186;28;20108;-85
2022/04/09 04:02:13;;;;;;;38.58;16.40;;;5.50;99.90;;;;;;5074327;28;20041;-85
2022/04/09 04:04:39;;;;;;;96.97;23.85;;;5.60;99.90;;;;;;5073123;28;20017;-85
2022/04/09 04:07:05;;;;;;;100.05;24.23;;;5.60;99.90;;;;;;5072973;28;20199;-85
2022/04/09 04:09:30;;;;;;;86.82;24.15;;;5.70;99.90;;;;;;5074131;28;20139;-85
2022/04/09 04:11:56;;;;;;;82.53;23.05;;;5.80;99.90;;;;;;5073005;28;20064;-85
2022/04/09 04:14:22;;;;;;;40.28;17.23;;;5.90;99.90;;;;;;5072983;28;20052;-85
2022/04/09 04:16:47;;;;;;;40.95;21.30;;;5.90;99.90;;;;;;5074328;28;20029;-85
2022/04/09 04:19:13;;;;;;;34.70;18.20;;;6.00;99.90;;;;;;5074499;28;20024;-85
2022/04/09 04:21:39;;;;;;;31.15;17.00;;;6.00;99.90;;;;;;5073014;28;20471;-85
2022/04/09 04:24:05;;;;;;;25.10;15.07;;;6.10;99.90;;;;;;5074329;28;20086;-85
2022/04/09 04:26:31;;;;;;;32.22;17.00;;;6.20;99.90;;;;;;5073857;28;20025;-85
2022/04/09 04:28:56;;;;;;;36.72;17.20;;;6.20;99.90;;;;;;5072817;28;20032;-85
2022/04/09 04:31:23;;;;;;;57.45;20.55;;;6.20;99.90;;;;;;5072837;28;20112;-85
2022/04/09 04:33:49;;;;;;;57.72;19.75;;;6.30;99.90;;;;;;5073886;28;20048;-85
2022/04/09 04:36:15;;;;;;;64.63;20.38;;;6.30;99.90;;;;;;5074048;28;20075;-85
2022/04/09 04:38:40;;;;;;;60.97;21.77;;;6.40;99.90;;;;;;5073009;28;20090;-86
2022/04/09 04:41:06;;;;;;;53.95;19.75;;;6.50;99.90;;;;;;5072796;28;20060;-85
2022/04/09 04:43:32;;;;;;;46.85;18.95;;;6.60;99.90;;;;;;5072760;28;20025;-85
2022/04/09 04:45:59;;;;;;;32.72;15.32;;;6.60;99.90;;;;;;5072772;28;20075;-85
2022/04/09 04:48:24;;;;;;;29.25;15.13;;;6.80;99.90;;;;;;5072807;28;20025;-85
2022/04/09 04:50:50;;;;;;;27.38;13.98;;;6.90;99.90;;;;;;5073752;28;20429;-85
2022/04/09 04:53:16;;;;;;;18.33;12.35;;;6.80;99.90;;;;;;5072588;28;20032;-85
2022/04/09 04:55:42;;;;;;;21.13;12.18;;;7.00;99.90;;;;;;5072414;28;20052;-85
2022/04/09 04:58:07;;;;;;;18.58;11.40;;;7.10;99.90;;;;;;5072752;28;20032;-85
2022/04/09 05:00:33;;;;;;;18.30;10.65;;;7.20;99.90;;;;;;5072526;28;20028;-86
2022/04/09 05:02:59;;;;;;;17.77;11.50;;;7.30;99.90;;;;;;5074570;28;20020;-85
2022/04/09 05:05:25;;;;;;;16.38;11.10;;;7.30;99.90;;;;;;5077600;28;20083;-85
2022/04/09 05:07:52;;;;;;;18.42;12.68;;;7.50;99.90;;;;;;5076064;28;20039;-85
2022/04/09 05:10:23;;;;;;;20.08;12.27;;;7.50;99.90;;;;;;5076151;28;20020;-85
2022/04/09 05:12:51;;;;;;;18.35;9.90;;;7.60;99.90;;;;;;5076266;28;20119;-85
2022/04/09 05:15:17;;;;;;;20.08;12.85;;;7.60;99.90;;;;;;5077026;28;20021;-85
2022/04/09 05:17:44;;;;;;;19.73;12.85;;;7.60;99.90;;;;;;5075943;28;20103;-85
2022/04/09 05:20:12;;;;;;;30.23;13.07;;;7.70;99.90;;;;;;5075942;28;20029;-85
2022/04/09 05:22:41;;;;;;;87.60;21.15;;;8.00;99.90;;;;;;5075704;28;20195;-85
2022/04/09 05:25:07;;;;;;;186.00;35.50;;;8.10;99.90;;;;;;5075801;28;20177;-85
2022/04/09 05:27:33;;;;;;;252.48;40.45;;;8.20;99.90;;;;;;5075525;28;20075;-85
2022/04/09 05:29:59;;;;;;;234.43;38.72;;;8.20;99.90;;;;;;5076259;28;20464;-85
2022/04/09 05:32:25;;;;;;;151.68;26.83;;;8.30;99.90;;;;;;5075139;28;20055;-84
2022/04/09 12:50:34;;;;;;;15.60;4.90;;;22.00;69.50;;;;;;5111157;27;20755;-82
2022/04/09 12:53:05;;;;;;;9.60;4.47;;;21.70;70.80;;;;;;5097583;28;20024;-82
2022/04/09 12:55:32;;;;;;;6.13;4.20;;;21.70;68.70;;;;;;5101283;28;20020;-82
2022/04/09 12:58:00;;;;;;;8.35;3.95;;;21.70;68.90;;;;;;5099504;28;20371;-83
2022/04/09 13:00:32;;;;;;;6.50;3.80;;;21.70;71.50;;;;;;5098439;28;20433;-83
2022/04/09 13:02:59;;;;;;;10.77;4.63;;;21.80;69.30;;;;;;5104881;28;20020;-83
2022/04/09 13:05:25;;;;;;;10.18;4.20;;;21.80;65.90;;;;;;5101777;28;20063;-81
2022/04/09 13:07:51;;;;;;;10.23;4.20;;;21.80;68.50;;;;;;5100011;28;20052;-82
2022/04/09 13:10:17;;;;;;;6.97;4.22;;;21.90;66.40;;;;;;5098156;28;20118;-81
2022/04/09 13:12:43;;;;;;;9.65;4.90;;;22.00;64.30;;;;;;5101048;28;20031;-83
2022/04/09 13:15:09;;;;;;;16.20;7.78;;;22.00;64.80;;;;;;5099392;28;20421;-83
2022/04/09 13:17:35;;;;;;;15.40;7.55;;;22.10;67.00;;;;;;5097948;28;20027;-83
2022/04/09 13:20:07;;;;;;;11.05;4.68;;;22.10;66.90;;;;;;5098060;28;20108;-82
2022/04/09 13:22:33;;;;;;;10.13;4.25;;;22.20;66.40;;;;;;5099318;28;20094;-83
2022/04/09 13:24:59;;;;;;;11.55;4.25;;;22.20;66.00;;;;;;5101543;28;20091;-81
2022/04/09 13:27:25;;;;;;;12.35;3.97;;;22.20;64.90;;;;;;5098749;28;20024;-81
2022/04/09 13:29:51;;;;;;;9.25;4.30;;;22.30;65.50;;;;;;5099056;28;20463;-81
2022/04/09 13:32:17;;;;;;;9.77;4.32;;;22.30;66.90;;;;;;5097742;28;20021;-81
2022/04/09 13:34:45;;;;;;;10.63;4.18;;;22.30;65.70;;;;;;5103422;28;20020;-81
2022/04/09 13:37:11;;;;;;;7.10;4.25;;;22.40;65.80;;;;;;5099323;28;20039;-82
2022/04/09 13:39:37;;;;;;;16.50;4.78;;;22.40;66.50;;;;;;5110302;28;20103;-81
2022/04/09 13:42:03;;;;;;;8.82;4.43;;;22.60;66.60;;;;;;5110765;28;20145;-81
2022/04/09 13:44:28;;;;;;;10.80;7.00;;;22.60;67.40;;;;;;5109194;28;20016;-81
2022/04/09 13:46:55;;;;;;;224.18;44.38;;;22.80;67.80;;;;;;5110460;28;20024;-82
2022/04/09 13:49:20;;;;;;;468.30;95.57;;;23.00;66.80;;;;;;5108854;28;20081;-82
2022/04/09 13:51:46;;;;;;;156.90;29.50;;;23.30;67.60;;;;;;5109123;28;20024;-82
2022/04/09 13:54:12;;;;;;;42.75;10.98;;;23.60;64.70;;;;;;5110339;28;20066;-82
2022/04/09 13:56:37;;;;;;;20.58;6.00;;;23.90;64.50;;;;;;5109019;28;20032;-81
2022/04/09 13:59:04;;;;;;;13.07;4.55;;;24.10;64.50;;;;;;5110248;28;20059;-82
2022/04/09 14:01:30;;;;;;;13.13;3.97;;;24.10;63.80;;;;;;5097642;28;20040;-82
2022/04/09 16:06:06;;;;;;;23.30;4.47;;;19.30;58.60;;;;;;5071231;28;20429;-80
2022/04/09 16:08:31;;;;;;;21.15;6.53;;;19.20;59.90;;;;;;5068800;28;20036;-79
2022/04/09 16:10:58;;;;;;;15.73;4.97;;;19.10;59.90;;;;;;5068336;28;20052;-80
2022/04/09 16:13:23;;;;;;;15.13;4.07;;;19.10;60.40;;;;;;5067300;28;20384;-80
2022/04/09 16:15:49;;;;;;;14.23;3.55;;;19.00;60.20;;;;;;5067555;28;20017;-79
2022/04/09 16:19:44;;;;;;;21.17;3.85;;;19.00;60.20;;;;;;5110247;27;20427;-81
2022/04/09 16:22:10;;;;;;;14.65;3.92;;;19.00;61.40;;;;;;5109567;28;20035;-81
2022/04/09 16:24:37;;;;;;;19.38;3.95;;;19.00;61.10;;;;;;5111071;28;20486;-81
2022/04/09 16:27:03;;;;;;;14.43;4.10;;;19.00;60.50;;;;;;5110116;28;20035;-81
2022/04/09 16:29:29;;;;;;;13.68;4.05;;;18.90;60.50;;;;;;5111243;28;20020;-81
2022/04/09 16:31:55;;;;;;;15.10;5.05;;;18.90;61.10;;;;;;5110043;28;20382;-81
2022/04/09 16:34:20;;;;;;;24.67;7.78;;;18.90;60.30;;;;;;5111182;28;20086;-82
2022/04/09 16:36:46;;;;;;;17.35;4.30;;;18.90;61.10;;;;;;5111148;28;20468;-82
2022/04/09 16:39:12;;;;;;;16.90;3.83;;;18.80;60.80;;;;;;5109682;28;20031;-82
2022/04/09 16:41:38;;;;;;;12.52;3.58;;;18.80;60.30;;;;;;5111076;28;20020;-83
2022/04/09 16:44:04;;;;;;;15.77;3.70;;;18.70;60.10;;;;;;5110757;28;20031;-83
2022/04/09 16:46:30;;;;;;;14.15;3.60;;;18.70;60.30;;;;;;5109492;28;20020;-80
2022/04/09 16:48:56;;;;;;;26.25;3.85;;;18.70;60.30;;;;;;5109673;28;20063;-81
2022/04/09 16:51:24;;;;;;;14.73;3.70;;;18.60;58.40;;;;;;5109492;28;20115;-79
2022/04/09 16:53:50;;;;;;;21.33;4.35;;;18.80;56.40;;;;;;5109589;28;20391;-78
2022/04/09 16:56:16;;;;;;;23.25;4.85;;;18.80;56.90;;;;;;5110526;28;20088;-79
2022/04/09 16:58:42;;;;;;;18.30;4.00;;;18.80;57.30;;;;;;5110615;28;20020;-80
2022/04/09 17:01:07;;;;;;;23.63;3.80;;;18.80;57.30;;;;;;5109301;28;20102;-80
2022/04/09 17:03:33;;;;;;;14.15;3.72;;;18.70;57.20;;;;;;5109284;28;20466;-80
2022/04/09 17:05:59;;;;;;;31.67;6.00;;;18.70;56.80;;;;;;5109026;28;20048;-79
2022/04/09 17:08:24;;;;;;;17.80;4.65;;;18.70;57.50;;;;;;5109157;28;20069;-80
2022/04/09 17:10:51;;;;;;;11.88;3.63;;;18.60;57.30;;;;;;5109388;28;20046;-81
2022/04/09 17:13:16;;;;;;;13.85;4.85;;;18.60;57.40;;;;;;5109042;28;20454;-82
2022/04/09 17:15:44;;;;;;;23.92;5.47;;;18.60;56.90;;;;;;5108683;28;20035;-81
2022/04/09 17:18:10;;;;;;;17.13;5.05;;;18.50;57.30;;;;;;5109922;28;20059;-81
2022/04/09 17:20:36;;;;;;;21.30;5.13;;;18.40;58.20;;;;;;5110283;28;20378;-81
2022/04/09 17:23:02;;;;;;;28.65;5.90;;;18.40;58.40;;;;;;5108706;28;20020;-81
2022/04/09 17:25:28;;;;;;;17.75;6.53;;;18.20;59.10;;;;;;5108741;28;20020;-80
2022/04/09 17:27:56;;;;;;;12.88;3.90;;;18.10;58.60;;;;;;5108902;28;20028;-82
2022/04/09 17:30:22;;;;;;;10.55;3.95;;;18.10;57.70;;;;;;5098768;28;20501;-83
2022/04/09 17:32:48;;;;;;;18.67;9.02;;;18.10;58.10;;;;;;5095234;28;20032;-81
2022/04/09 17:35:13;;;;;;;19.42;7.57;;;18.00;58.50;;;;;;5095384;28;20028;-81
2022/04/09 17:37:40;;;;;;;16.65;3.83;;;18.00;58.30;;;;;;5095007;28;20081;-82
2022/04/09 17:40:06;;;;;;;11.32;3.90;;;18.00;58.20;;;;;;5095083;28;20039;-82
2022/04/09 17:42:32;;;;;;;21.05;3.40;;;18.00;58.40;;;;;;5095550;28;20051;-81
2022/04/09 17:44:58;;;;;;;18.83;4.45;;;18.00;58.70;;;;;;5096569;28;20374;-83
2022/04/09 17:47:24;;;;;;;19.27;4.57;;;17.90;59.00;;;;;;5094794;28;20366;-82
2022/04/09 17:49:50;;;;;;;18.70;4.43;;;17.80;59.30;;;;;;5095366;28;20028;-87
2022/04/09 19:10:26;;;;;;;36.65;13.68;;;15.50;70.30;;;;;;5072394;28;20739;-81
2022/04/09 19:12:52;;;;;;;12.95;7.80;;;15.40;71.10;;;;;;5070485;28;20021;-82
2022/04/09 19:15:17;;;;;;;13.30;3.55;;;15.40;71.70;;;;;;5069656;28;20043;-82
2022/04/09 19:17:43;;;;;;;8.48;4.03;;;15.40;71.40;;;;;;5069470;28;20032;-82
2022/04/09 19:20:11;;;;;;;9.80;3.90;;;15.40;72.10;;;;;;5069443;28;20083;-83
2022/04/09 19:22:37;;;;;;;10.68;4.70;;;15.40;71.80;;;;;;5070814;28;20032;-82
2022/04/09 19:25:04;;;;;;;9.10;4.00;;;15.40;72.50;;;;;;5070656;28;20468;-82
2022/04/09 19:27:30;;;;;;;11.00;3.97;;;15.40;72.40;;;;;;5069290;28;20028;-82
2022/04/09 19:30:03;;;;;;;13.25;4.00;;;15.40;72.60;;;;;;5069190;28;20025;-82
2022/04/09 19:32:31;;;;;;;10.43;3.88;;;15.40;72.60;;;;;;5069295;28;20570;-82
2022/04/09 19:34:57;;;;;;;11.15;3.83;;;15.40;72.90;;;;;;5070537;28;20067;-82
2022/04/09 19:37:23;;;;;;;10.38;4.07;;;15.40;72.80;;;;;;5069042;28;20027;-82
2022/04/09 19:39:48;;;;;;;8.57;4.32;;;15.30;73.40;;;;;;5069113;28;20120;-82
2022/04/09 19:42:14;;;;;;;7.43;4.40;;;15.30;73.50;;;;;;5069094;28;20027;-81
2022/04/09 19:44:40;;;;;;;11.55;4.50;;;15.30;73.80;;;;;;5070271;28;20066;-82
2022/04/09 19:47:06;;;;;;;10.25;5.05;;;15.20;74.50;;;;;;5068894;28;20032;-82
2022/04/09 19:49:33;;;;;;;10.27;5.10;;;15.20;74.50;;;;;;5070170;28;20083;-82
2022/04/09 19:51:59;;;;;;;9.45;5.20;;;15.10;75.20;;;;;;5068682;28;20028;-82
2022/04/09 19:54:24;;;;;;;9.52;4.72;;;15.00;75.70;;;;;;5068234;28;20078;-82
2022/04/09 19:56:52;;;;;;;11.93;4.55;;;14.90;76.20;;;;;;5068479;28;20021;-82
2022/04/09 19:59:18;;;;;;;10.70;4.72;;;14.90;76.50;;;;;;5067482;28;20025;-82
2022/04/09 20:01:44;;;;;;;8.75;4.40;;;14.80;76.70;;;;;;5069784;28;20017;-82
2022/04/09 20:04:10;;;;;;;11.93;4.57;;;14.80;77.00;;;;;;5068289;28;20027;-81
2022/04/09 20:06:35;;;;;;;8.68;4.85;;;14.70;77.30;;;;;;5069854;28;20035;-82
2022/04/09 20:09:02;;;;;;;11.43;4.90;;;14.70;77.80;;;;;;5068226;28;20083;-81
2022/04/09 20:11:28;;;;;;;12.10;4.85;;;14.60;78.30;;;;;;5069201;28;20021;-82
2022/04/09 20:13:53;;;;;;;17.92;9.23;;;14.50;78.80;;;;;;5067879;28;20159;-81
2022/04/09 20:16:19;;;;;;;14.65;7.43;;;14.50;79.30;;;;;;5069331;28;20054;-81
2022/04/09 20:18:45;;;;;;;13.05;6.05;;;14.40;79.90;;;;;;5067543;28;20437;-81
2022/04/09 20:21:11;;;;;;;10.75;5.70;;;14.40;80.20;;;;;;5058201;28;20037;-82
2022/04/09 20:23:38;;;;;;;11.23;5.53;;;14.30;80.80;;;;;;5056404;28;20036;-81
2022/04/09 20:26:05;;;;;;;10.38;5.95;;;14.30;81.10;;;;;;5055066;28;20025;-80
2022/04/09 20:28:31;;;;;;;13.10;5.90;;;14.30;81.30;;;;;;5054931;28;20111;-81
2022/04/09 20:30:56;;;;;;;11.85;5.35;;;14.20;81.80;;;;;;5055037;28;20112;-81
2022/04/09 20:33:22;;;;;;;11.80;6.35;;;14.20;82.30;;;;;;5054910;28;20467;-81
2022/04/09 20:35:48;;;;;;;13.60;6.82;;;14.10;82.70;;;;;;5054781;28;20063;-81
2022/04/09 20:38:13;;;;;;;13.23;6.30;;;14.10;83.30;;;;;;5054938;28;20021;-81
2022/04/09 20:40:39;;;;;;;12.38;6.43;;;14.10;83.60;;;;;;5055829;28;20025;-81
2022/04/09 20:43:04;;;;;;;15.93;6.50;;;14.00;84.10;;;;;;5055959;28;20078;-81
2022/04/09 20:45:30;;;;;;;14.98;6.80;;;13.90;84.80;;;;;;5055998;28;20108;-81
2022/04/09 20:47:56;;;;;;;13.55;6.60;;;13.80;85.50;;;;;;5056201;28;20059;-82
2022/04/09 20:50:22;;;;;;;19.67;9.52;;;13.80;86.10;;;;;;5055236;28;20044;-81
2022/04/09 20:52:47;;;;;;;12.55;6.88;;;13.90;86.50;;;;;;5055736;28;20029;-80
2022/04/09 20:55:13;;;;;;;16.85;7.82;;;13.80;87.20;;;;;;5055908;28;20025;-80
2022/04/09 20:57:38;;;;;;;16.20;7.95;;;13.70;87.90;;;;;;5054291;28;20017;-80
2022/04/09 21:00:07;;;;;;;15.13;7.50;;;13.70;88.70;;;;;;5055513;28;20475;-80
2022/04/09 21:02:33;;;;;;;14.88;7.03;;;13.60;89.50;;;;;;5053164;28;20036;-80
2022/04/09 21:04:59;;;;;;;14.15;7.20;;;13.50;90.10;;;;;;5055122;28;20021;-80
2022/04/09 21:07:24;;;;;;;15.73;7.07;;;13.40;90.50;;;;;;5054826;28;20059;-80
2022/04/09 21:09:50;;;;;;;12.02;6.90;;;13.40;90.80;;;;;;5052737;28;20555;-80
2022/04/09 21:12:18;;;;;;;16.52;6.97;;;13.30;91.00;;;;;;5054592;28;20099;-81
2022/04/09 21:14:44;;;;;;;18.40;7.15;;;13.30;91.30;;;;;;5053306;28;20482;-80
2022/04/09 21:17:09;;;;;;;17.55;7.93;;;13.30;91.60;;;;;;5053242;28;20021;-80
2022/04/09 21:19:35;;;;;;;18.10;7.40;;;13.10;92.20;;;;;;5054134;28;20028;-81
2022/04/09 21:22:01;;;;;;;19.23;7.57;;;13.20;92.30;;;;;;5053760;28;20025;-80
2022/04/09 21:24:27;;;;;;;15.02;7.30;;;13.20;92.60;;;;;;5053865;28;20028;-80
2022/04/09 21:26:52;;;;;;;13.75;7.60;;;13.00;92.90;;;;;;5052018;28;20017;-80
2022/04/09 21:29:20;;;;;;;21.30;8.20;;;13.00;93.40;;;;;;5053765;28;20029;-80
2022/04/09 21:31:45;;;;;;;16.52;6.88;;;13.00;93.50;;;;;;5053300;28;20478;-80
2022/04/09 21:34:11;;;;;;;14.50;8.05;;;13.00;93.80;;;;;;5052664;28;20167;-81
2022/04/09 21:36:36;;;;;;;17.98;8.15;;;12.90;94.00;;;;;;5054044;28;20024;-81
2022/04/09 21:39:02;;;;;;;19.52;8.40;;;12.90;94.10;;;;;;5054181;28;20021;-81
2022/04/09 21:41:28;;;;;;;18.45;7.80;;;12.90;94.40;;;;;;5052580;28;20025;-81
2022/04/09 21:43:53;;;;;;;17.15;7.70;;;12.80;94.70;;;;;;5053041;28;20021;-80
2022/04/09 21:46:19;;;;;;;15.07;7.53;;;12.70;95.10;;;;;;5053502;28;20029;-81
2022/04/09 21:48:45;;;;;;;15.05;7.63;;;12.60;95.50;;;;;;5054849;28;20423;-81
2022/04/09 21:51:11;;;;;;;12.75;7.75;;;12.60;95.90;;;;;;5053096;28;20060;-81
2022/04/09 21:53:37;;;;;;;12.57;7.88;;;12.60;96.10;;;;;;5053438;28;20031;-81
2022/04/09 21:56:03;;;;;;;15.77;7.45;;;12.50;96.40;;;;;;5053236;28;20025;-81
2022/04/09 21:58:29;;;;;;;12.85;7.25;;;12.40;96.70;;;;;;5053246;28;20033;-81
2022/04/09 22:00:56;;;;;;;12.40;7.50;;;12.40;97.00;;;;;;5053268;28;20533;-81
2022/04/09 22:03:22;;;;;;;16.35;8.35;;;12.40;97.20;;;;;;5054500;28;20044;-81
2022/04/09 22:05:47;;;;;;;13.40;7.50;;;12.30;97.50;;;;;;5054762;28;20036;-81
2022/04/09 22:08:14;;;;;;;15.02;7.28;;;12.30;97.90;;;;;;5054208;28;20092;-81
2022/04/09 22:10:40;;;;;;;17.88;7.97;;;12.20;98.10;;;;;;5053167;28;20017;-80
2022/04/09 22:13:07;;;;;;;12.98;7.93;;;12.20;98.40;;;;;;5054413;28;20032;-81
2022/04/09 22:15:34;;;;;;;13.57;7.95;;;12.10;98.70;;;;;;5052893;28;20104;-80
2022/04/09 22:18:00;;;;;;;16.42;8.43;;;12.10;98.80;;;;;;5053857;28;20017;-81
2022/04/09 22:20:27;;;;;;;12.52;7.72;;;12.00;98.90;;;;;;5052633;28;20032;-81
2022/04/09 22:22:54;;;;;;;15.18;7.85;;;12.10;99.30;;;;;;5052807;28;20025;-81
2022/04/09 22:25:20;;;;;;;15.57;8.82;;;12.00;99.30;;;;;;5052766;28;20078;-81
2022/04/09 22:27:47;;;;;;;15.70;8.57;;;12.00;99.50;;;;;;5054211;28;20025;-81
2022/04/09 22:30:13;;;;;;;18.45;9.70;;;12.00;99.60;;;;;;5052992;28;20029;-81
2022/04/09 22:32:38;;;;;;;19.33;9.55;;;11.90;99.80;;;;;;5054006;28;20471;-81
2022/04/09 22:35:06;;;;;;;17.30;9.23;;;11.90;99.90;;;;;;5053949;28;20025;-81
2022/04/09 22:37:31;;;;;;;17.55;8.80;;;11.80;99.90;;;;;;5052742;28;20112;-81
2022/04/09 22:39:57;;;;;;;13.52;8.65;;;11.80;99.90;;;;;;5053906;28;20424;-81
2022/04/09 22:42:23;;;;;;;18.90;8.63;;;11.80;99.90;;;;;;5052559;28;20387;-81
2022/04/09 22:44:48;;;;;;;13.43;9.10;;;11.80;99.90;;;;;;5052390;28;20033;-81
2022/04/09 22:47:15;;;;;;;18.98;8.90;;;11.70;99.90;;;;;;5053848;28;20467;-80
2022/04/09 22:49:41;;;;;;;17.95;9.23;;;11.80;99.90;;;;;;5052374;28;20029;-81
2022/04/09 22:52:08;;;;;;;18.85;9.27;;;11.70;99.90;;;;;;5053667;28;20495;-81
2022/04/09 22:54:33;;;;;;;17.50;8.60;;;11.70;99.90;;;;;;5052416;28;20025;-81
2022/04/09 22:56:59;;;;;;;15.43;8.57;;;11.70;99.90;;;;;;5052456;28;20032;-81
2022/04/09 22:59:24;;;;;;;16.13;9.68;;;11.70;99.90;;;;;;5053606;28;20083;-81
2022/04/09 23:01:50;;;;;;;13.90;8.88;;;11.70;99.90;;;;;;5052266;28;20043;-80
2022/04/09 23:04:16;;;;;;;14.65;9.18;;;11.60;99.90;;;;;;5052294;28;20191;-81
2022/04/09 23:06:41;;;;;;;14.85;8.85;;;11.60;99.90;;;;;;5053585;28;20029;-81
2022/04/09 23:09:07;;;;;;;20.67;9.15;;;11.50;99.90;;;;;;5051686;28;20049;-81